createdAt,value
2022-11-22T00:01:05.712Z,99753.38
2022-11-22T00:03:37.678Z,99749.97
2022-11-22T00:06:09.648Z,99744.91
2022-11-22T00:08:41.680Z,99744.88
2022-11-22T00:11:13.624Z,99755.16
2022-11-22T00:13:45.555Z,99750.91
2022-11-22T00:16:17.579Z,99750.06
2022-11-22T00:18:49.507Z,99754.31
2022-11-22T00:21:21.477Z,99740.53
2022-11-22T00:23:59.475Z,99745.75
2022-11-22T00:26:31.448Z,99744.91
2022-11-22T00:29:03.528Z,99732.94
2022-11-22T00:31:35.609Z,99727.81
2022-11-22T00:34:07.656Z,99728.72
2022-11-22T00:36:39.607Z,99716.63
2022-11-22T00:39:11.524Z,99712.44
2022-11-22T00:41:43.481Z,99703.84
2022-11-22T00:44:15.421Z,99702.13
2022-11-22T00:46:47.405Z,99712.44
2022-11-22T00:49:19.325Z,99709.06
2022-11-22T00:51:51.385Z,99700.41
2022-11-22T00:54:23.392Z,99700.34
2022-11-22T00:56:55.359Z,99692.59
2022-11-22T00:59:27.577Z,99693.41
2022-11-22T01:01:59.689Z,99689.16
2022-11-22T01:04:31.716Z,99691.72
2022-11-22T01:07:03.936Z,99682.22
2022-11-22T01:09:36.094Z,99690.88
2022-11-22T01:12:08.259Z,99683.97
2022-11-22T01:14:40.201Z,99677.16
2022-11-22T01:17:12.194Z,99683.22
2022-11-22T01:19:44.160Z,99684.06
2022-11-22T01:22:16.355Z,99687.47
2022-11-22T01:24:48.404Z,99686.69
2022-11-22T01:27:20.433Z,99688.28
2022-11-22T01:29:52.535Z,99683.09
2022-11-22T01:32:24.614Z,99690.84
2022-11-22T01:34:56.664Z,99687.31
2022-11-22T01:37:28.649Z,99693.31
2022-11-22T01:40:00.630Z,99690.81
2022-11-22T01:42:54.698Z,99690.88
2022-11-22T01:45:41.758Z,99678.06
2022-11-22T01:48:13.636Z,99683.22
2022-11-22T01:50:50.207Z,99686.69
2022-11-22T01:53:34.424Z,99685.63
2022-11-22T01:56:11.520Z,99681.38
2022-11-22T01:58:48.442Z,99679.72
2022-11-22T02:01:20.848Z,99682.25
2022-11-22T02:03:56.109Z,99683.94
2022-11-22T02:06:43.613Z,99675.31
2022-11-22T02:09:17.081Z,99675.41
2022-11-22T02:11:52.592Z,99675.41
2022-11-22T02:14:27.361Z,99674.59
2022-11-22T02:16:59.457Z,99674.59
2022-11-22T02:19:48.211Z,99672.03
2022-11-22T02:23:10.505Z,99661.84
2022-11-22T02:25:42.458Z,99655.81
2022-11-22T02:28:14.519Z,99643.81
2022-11-22T02:30:46.605Z,99643.75
2022-11-22T02:33:18.876Z,99645.50
2022-11-22T02:35:50.928Z,99635.97
2022-11-22T02:38:31.756Z,99628.25
2022-11-22T02:41:09.429Z,99628.31
2022-11-22T02:43:47.527Z,99637.78
2022-11-22T02:46:21.895Z,99643.81
2022-11-22T02:48:53.928Z,99633.47
2022-11-22T02:51:26.625Z,99630.91
2022-11-22T02:53:58.562Z,99636.06
2022-11-22T02:56:30.551Z,99626.63
2022-11-22T02:59:02.532Z,99617.13
2022-11-22T03:01:35.353Z,99616.22
2022-11-22T03:04:07.431Z,99610.16
2022-11-22T03:06:39.387Z,99613.63
2022-11-22T03:09:11.329Z,99615.34
2022-11-22T03:11:43.657Z,99623.94
2022-11-22T03:14:16.128Z,99614.47
2022-11-22T03:16:48.484Z,99612.75
2022-11-22T03:19:20.636Z,99613.63
2022-11-22T03:21:52.695Z,99608.53
2022-11-22T03:24:24.635Z,99607.69
2022-11-22T03:26:56.737Z,99605.19
2022-11-22T03:29:28.996Z,99603.34
2022-11-22T03:32:01.171Z,99590.47
2022-11-22T03:34:33.103Z,99588.78
2022-11-22T03:37:05.086Z,99587.91
2022-11-22T03:39:37.020Z,99597.41
2022-11-22T03:42:08.979Z,99599.94
2022-11-22T03:44:41.026Z,99583.75
2022-11-22T03:47:13.097Z,99574.22
2022-11-22T03:49:45.213Z,99580.22
2022-11-22T03:52:17.262Z,99584.50
2022-11-22T03:54:49.261Z,99599.09
2022-11-22T03:57:21.254Z,99600.03
2022-11-22T03:59:53.224Z,99589.78
2022-11-22T04:02:25.185Z,99593.16
2022-11-22T04:04:57.142Z,99598.31
2022-11-22T04:07:29.170Z,99589.69
2022-11-22T04:10:01.196Z,99579.38
2022-11-22T04:12:33.481Z,99573.38
2022-11-22T04:15:08.947Z,99565.66
2022-11-22T04:17:48.173Z,99572.53
2022-11-22T04:20:48.275Z,99585.47
2022-11-22T04:23:23.845Z,99597.56
2022-11-22T04:25:56.275Z,99603.63
2022-11-22T04:28:47.083Z,99595.88
2022-11-22T04:31:38.641Z,99599.31
2022-11-22T04:34:10.608Z,99592.44
2022-11-22T04:36:42.556Z,99585.59
2022-11-22T04:39:14.484Z,99590.81
2022-11-22T04:41:46.530Z,99584.81
2022-11-22T04:44:37.193Z,99589.94
2022-11-22T04:47:35.949Z,99592.53
2022-11-22T04:50:29.080Z,99585.63
2022-11-22T04:53:01.141Z,99581.31
2022-11-22T04:55:33.091Z,99589.94
2022-11-22T04:58:05.183Z,99591.56
2022-11-22T05:00:37.502Z,99592.38
2022-11-22T05:03:09.793Z,99591.50
2022-11-22T05:05:44.567Z,99589.78
2022-11-22T05:08:16.567Z,99588.00
2022-11-22T05:10:58.349Z,99583.72
2022-11-22T05:13:36.184Z,99585.44
2022-11-22T05:16:12.157Z,99589.84
2022-11-22T05:18:44.194Z,99594.13
2022-11-22T05:21:16.172Z,99598.44
2022-11-22T05:23:56.864Z,99598.47
2022-11-22T05:26:35.460Z,99602.75
2022-11-22T05:29:10.472Z,99610.47
2022-11-22T05:31:48.259Z,99611.31
2022-11-22T05:34:23.064Z,99614.78
2022-11-22T05:36:55.151Z,99609.59
2022-11-22T05:39:27.321Z,99618.25
2022-11-22T05:41:59.517Z,99622.59
2022-11-22T05:44:31.797Z,99617.47
2022-11-22T05:47:03.951Z,99608.81
2022-11-22T05:49:36.212Z,99623.44
2022-11-22T05:52:08.887Z,99625.19
2022-11-22T05:54:40.841Z,99632.78
2022-11-22T05:57:12.835Z,99631.91
2022-11-22T05:59:44.755Z,99632.75
2022-11-22T06:02:16.814Z,99635.38
2022-11-22T06:04:48.817Z,99619.94
2022-11-22T06:07:20.913Z,99631.09
2022-11-22T06:09:52.928Z,99624.25
2022-11-22T06:12:24.860Z,99626.75
2022-11-22T06:14:56.873Z,99620.81
2022-11-22T06:17:28.820Z,99619.09
2022-11-22T06:20:05.880Z,99622.56
2022-11-22T06:22:38.582Z,99620.84
2022-11-22T06:25:10.710Z,99624.31
2022-11-22T06:27:42.650Z,99617.47
2022-11-22T06:30:15.241Z,99618.28
2022-11-22T06:32:47.223Z,99635.53
2022-11-22T06:35:19.181Z,99632.88
2022-11-22T06:37:54.897Z,99632.84
2022-11-22T06:40:29.615Z,99625.19
2022-11-22T06:43:01.594Z,99616.63
2022-11-22T06:45:33.523Z,99619.19
2022-11-22T06:48:06.153Z,99608.91
2022-11-22T06:50:38.096Z,99609.72
2022-11-22T06:53:21.328Z,99598.53
2022-11-22T06:56:18.621Z,99607.16
2022-11-22T06:58:52.292Z,99610.59
2022-11-22T07:01:29.525Z,99611.50
2022-11-22T07:04:02.169Z,99615.88
2022-11-22T07:06:38.658Z,99617.56
2022-11-22T07:09:11.987Z,99618.44
2022-11-22T07:11:44.034Z,99611.59
2022-11-22T07:14:16.010Z,99616.69
2022-11-22T07:16:47.952Z,99621.00
2022-11-22T07:19:19.894Z,99628.81
2022-11-22T07:21:51.805Z,99627.06
2022-11-22T07:24:23.757Z,99642.50
2022-11-22T07:26:55.778Z,99636.47
2022-11-22T07:29:27.941Z,99639.09
2022-11-22T07:32:00.114Z,99646.00
2022-11-22T07:34:32.093Z,99662.31
2022-11-22T07:37:08.915Z,99670.09
2022-11-22T07:39:41.190Z,99680.47
2022-11-22T07:42:13.256Z,99683.03
2022-11-22T07:44:45.213Z,99673.63
2022-11-22T07:47:22.590Z,99678.88
2022-11-22T07:49:54.984Z,99677.16
2022-11-22T07:52:26.939Z,99678.03
2022-11-22T07:54:58.935Z,99669.50
2022-11-22T07:57:32.446Z,99673.84
2022-11-22T08:00:06.268Z,99685.88
2022-11-22T08:02:38.872Z,99691.06
2022-11-22T08:05:11.095Z,99689.31
2022-11-22T08:07:51.732Z,99693.63
2022-11-22T08:10:24.381Z,99698.81
2022-11-22T08:13:00.277Z,99697.13
2022-11-22T08:15:32.780Z,99696.28
2022-11-22T08:18:04.804Z,99694.53
2022-11-22T08:20:36.782Z,99698.88
2022-11-22T08:23:08.713Z,99696.28
2022-11-22T08:25:40.691Z,99700.56
2022-11-22T08:28:12.660Z,99704.84
2022-11-22T08:30:44.597Z,99711.72
2022-11-22T08:33:16.578Z,99713.53
2022-11-22T08:35:50.797Z,99718.69
2022-11-22T08:38:22.968Z,99718.63
2022-11-22T08:40:55.272Z,99699.72
2022-11-22T08:43:27.194Z,99705.81
2022-11-22T08:46:02.089Z,99711.00
2022-11-22T08:48:37.131Z,99713.59
2022-11-22T08:51:14.985Z,99707.59
2022-11-22T08:53:47.222Z,99712.78
2022-11-22T08:56:19.156Z,99709.41
2022-11-22T08:58:51.181Z,99716.28
2022-11-22T09:01:23.691Z,99720.59
2022-11-22T09:03:55.705Z,99724.94
2022-11-22T09:09:36.781Z,99726.63
2022-11-22T09:12:11.612Z,99729.97
2022-11-22T09:14:43.665Z,99733.47
2022-11-22T09:17:18.033Z,99734.38
2022-11-22T09:19:50.376Z,99730.06
2022-11-22T09:22:28.094Z,99738.69
2022-11-22T09:25:00.756Z,99733.56
2022-11-22T09:27:36.115Z,99735.31
2022-11-22T09:30:08.791Z,99740.53
2022-11-22T09:32:43.765Z,99743.94
2022-11-22T09:35:17.364Z,99736.22
2022-11-22T09:37:49.324Z,99748.31
2022-11-22T09:40:21.421Z,99734.53
2022-11-22T09:43:39.897Z,99744.03
2022-11-22T09:46:25.973Z,99749.22
2022-11-22T09:49:38.445Z,99750.97
2022-11-22T09:52:19.624Z,99749.28
2022-11-22T09:55:05.026Z,99749.31
2022-11-22T09:58:10.209Z,99745.00
2022-11-22T10:00:47.756Z,99752.75
2022-11-22T10:04:06.066Z,99753.63
2022-11-22T10:06:43.036Z,99751.06
2022-11-22T10:09:33.430Z,99757.13
2022-11-22T10:12:21.076Z,99759.75
2022-11-22T10:15:24.642Z,99764.91
2022-11-22T10:18:24.588Z,99766.63
2022-11-22T10:20:56.569Z,99754.53
2022-11-22T10:23:28.988Z,99764.91
2022-11-22T10:26:19.547Z,99760.56
2022-11-22T10:29:42.557Z,99752.75
2022-11-22T10:32:35.267Z,99749.31
2022-11-22T10:35:59.494Z,99754.47
2022-11-22T10:38:58.438Z,99744.84
2022-11-22T10:41:39.794Z,99749.97
2022-11-22T10:44:52.209Z,99731.75
2022-11-22T10:47:44.918Z,99738.66
2022-11-22T10:50:32.289Z,99736.97
2022-11-22T10:53:29.104Z,99740.50
2022-11-22T10:56:35.336Z,99743.19
2022-11-22T10:59:37.904Z,99756.16
2022-11-22T11:03:06.508Z,99752.78
2022-11-22T11:12:17.502Z,99736.13
2022-11-22T11:14:56.226Z,99733.53
2022-11-22T11:17:37.440Z,99737.00
2022-11-22T11:20:33.541Z,99737.00
2022-11-22T11:23:20.980Z,99733.47
2022-11-22T11:25:53.242Z,99738.63
2022-11-22T11:28:30.140Z,99736.97
2022-11-22T11:31:11.731Z,99729.19
2022-11-22T11:33:43.769Z,99722.28
2022-11-22T11:36:23.380Z,99718.69
2022-11-22T11:38:58.236Z,99726.41
2022-11-22T11:41:34.465Z,99722.13
2022-11-22T11:44:29.361Z,99717.78
2022-11-22T11:47:02.952Z,99713.38
2022-11-22T11:49:40.616Z,99716.78
2022-11-22T11:52:23.952Z,99715.06
2022-11-22T11:54:59.605Z,99709.06
2022-11-22T11:57:35.584Z,99716.00
2022-11-22T12:00:22.420Z,99722.00
2022-11-22T12:03:01.024Z,99727.13
2022-11-22T12:05:34.645Z,99721.91
2022-11-22T12:08:31.675Z,99731.47
2022-11-22T12:11:10.215Z,99727.09
2022-11-22T12:14:19.041Z,99724.41
2022-11-22T12:16:54.714Z,99721.78
2022-11-22T12:19:58.169Z,99721.81
2022-11-22T12:23:21.806Z,99724.38
2022-11-22T12:25:57.311Z,99734.81
2022-11-22T12:28:29.727Z,99730.44
2022-11-22T12:31:13.599Z,99732.19
2022-11-22T12:33:54.846Z,99730.44
2022-11-22T12:36:45.111Z,99729.63
2022-11-22T12:39:26.324Z,99731.34
2022-11-22T12:42:12.120Z,99731.38
2022-11-22T12:44:52.265Z,99731.38
2022-11-22T12:47:31.669Z,99724.50
2022-11-22T12:50:18.826Z,99732.28
2022-11-22T12:53:31.294Z,99728.78
2022-11-22T12:56:33.590Z,99726.22
2022-11-22T12:59:24.407Z,99734.03
2022-11-22T13:02:10.998Z,99736.66
2022-11-22T13:05:23.550Z,99734.06
2022-11-22T13:08:29.063Z,99724.53
2022-11-22T13:11:19.274Z,99728.88
2022-11-22T13:13:58.239Z,99716.69
2022-11-22T13:16:30.345Z,99727.06
2022-11-22T13:19:05.512Z,99729.66
2022-11-22T13:22:02.485Z,99722.75
2022-11-22T13:25:02.085Z,99733.16
2022-11-22T13:27:46.524Z,99734.91
2022-11-22T13:30:28.046Z,99737.50
2022-11-22T13:33:01.322Z,99722.88
2022-11-22T13:35:38.166Z,99717.63
2022-11-22T13:38:18.216Z,99720.22
2022-11-22T13:40:51.373Z,99729.78
2022-11-22T13:43:50.629Z,99716.84
2022-11-22T13:47:23.883Z,99710.75
2022-11-22T13:49:55.878Z,99723.75
2022-11-22T13:52:49.793Z,99726.28
2022-11-22T13:55:40.455Z,99723.78
2022-11-22T13:58:26.312Z,99726.44
2022-11-22T14:01:00.008Z,99731.66
2022-11-22T14:03:36.349Z,99740.34
2022-11-22T14:06:30.720Z,99735.97
2022-11-22T14:09:44.290Z,99740.34
2022-11-22T14:12:53.423Z,99742.09
2022-11-22T14:15:57.610Z,99733.41
2022-11-22T14:18:52.880Z,99734.28
2022-11-22T14:22:01.805Z,99736.06
2022-11-22T14:25:24.331Z,99723.06
2022-11-22T14:28:23.712Z,99723.97
2022-11-22T14:30:57.838Z,99725.78
2022-11-22T14:33:29.948Z,99725.75
2022-11-22T14:36:08.058Z,99730.94
2022-11-22T14:38:44.446Z,99724.91
2022-11-22T14:41:28.395Z,99727.53
2022-11-22T14:44:11.524Z,99717.16
2022-11-22T14:47:07.688Z,99715.44
2022-11-22T14:49:48.583Z,99730.13
2022-11-22T14:52:24.709Z,99730.13
2022-11-22T14:55:06.093Z,99729.28
2022-11-22T14:57:38.724Z,99726.69
2022-11-22T15:00:24.391Z,99729.28
2022-11-22T15:03:42.877Z,99725.81
2022-11-22T15:09:19.186Z,99722.38
2022-11-22T15:10:25.551Z,99733.59
2022-11-22T15:13:23.312Z,99739.63
2022-11-22T15:57:54.420Z,99778.53
2022-11-22T16:00:29.352Z,99781.09
2022-11-22T16:03:03.002Z,99782.81
2022-11-22T16:06:06.677Z,99786.31
2022-11-22T16:08:32.824Z,99776.78
2022-11-22T16:11:05.937Z,99775.94
2022-11-22T16:13:38.515Z,99778.53
2022-11-22T16:16:13.484Z,99784.59
2022-11-22T16:18:48.358Z,99781.19
2022-11-22T16:21:29.069Z,99782.03
2022-11-22T16:24:19.692Z,99776.81
2022-11-22T16:27:00.609Z,99787.19
2022-11-22T16:29:37.040Z,99783.78
2022-11-22T16:32:16.493Z,99784.63
2022-11-22T16:34:51.602Z,99788.09
2022-11-22T16:37:37.857Z,99789.84
2022-11-22T16:40:16.308Z,99795.03
2022-11-22T16:42:48.326Z,99797.63
2022-11-22T16:45:24.066Z,99794.19
2022-11-22T16:48:16.527Z,99799.38
2022-11-22T16:51:06.149Z,99805.44
2022-11-22T16:53:45.696Z,99814.09
2022-11-22T16:56:28.370Z,99807.16
2022-11-22T16:59:00.554Z,99807.16
2022-11-22T17:01:34.384Z,99807.19
2022-11-22T17:04:06.449Z,99799.41
2022-11-22T17:06:38.493Z,99802.84
2022-11-22T17:09:10.557Z,99814.09
2022-11-22T17:11:44.403Z,99806.31
2022-11-22T17:14:18.558Z,99802.00
2022-11-22T17:16:50.588Z,99791.63
2022-11-22T17:19:52.820Z,99791.59
2022-11-22T17:22:17.034Z,99800.28
2022-11-22T17:24:49.027Z,99802.88
2022-11-22T17:27:21.060Z,99808.06
2022-11-22T17:29:53.072Z,99807.19
2022-11-22T17:32:25.017Z,99799.41
2022-11-22T17:34:57.016Z,99802.91
2022-11-22T17:37:29.820Z,99796.88
2022-11-22T17:40:02.419Z,99806.38
2022-11-22T17:42:40.780Z,99817.56
2022-11-22T17:45:13.476Z,99822.75
2022-11-22T17:47:45.620Z,99825.34
2022-11-22T17:50:17.698Z,99828.81
2022-11-22T17:52:52.072Z,99831.41
2022-11-22T17:55:26.364Z,99829.69
2022-11-22T17:58:01.130Z,99834.88
2022-11-22T18:00:33.126Z,99834.00
2022-11-22T18:03:08.241Z,99838.31
2022-11-22T18:05:40.487Z,99840.91
2022-11-22T18:08:12.435Z,99849.53
2022-11-22T18:10:44.428Z,99852.13
2022-11-22T18:13:23.600Z,99853.00
2022-11-22T18:16:03.444Z,99854.72
2022-11-22T18:18:56.263Z,99850.41
2022-11-22T18:21:31.104Z,99854.72
2022-11-22T18:24:03.329Z,99853.00
2022-11-22T18:26:40.387Z,99851.28
2022-11-22T18:32:06.024Z,99854.72
2022-11-22T18:34:37.981Z,99854.72
2022-11-22T18:37:10.157Z,99863.38
2022-11-22T18:39:42.121Z,99859.03
2022-11-22T18:42:16.258Z,99863.38
2022-11-22T18:44:48.213Z,99857.31
2022-11-22T18:47:20.241Z,99857.31
2022-11-22T18:49:52.293Z,99851.28
2022-11-22T18:52:24.745Z,99851.28
2022-11-22T18:54:56.664Z,99846.09
2022-11-22T18:57:29.123Z,99843.50
2022-11-22T19:00:01.133Z,99849.53
2022-11-22T19:02:33.852Z,99850.41
2022-11-22T19:05:06.143Z,99859.03
2022-11-22T19:07:39.480Z,99854.72
2022-11-22T19:10:11.550Z,99855.56
2022-11-22T19:12:43.749Z,99854.72
2022-11-22T19:15:16.723Z,99856.44
2022-11-22T19:17:48.705Z,99860.69
2022-11-22T19:20:47.268Z,99860.69
2022-11-22T19:23:12.926Z,99849.47
2022-11-22T19:25:44.903Z,99840.00
2022-11-22T19:28:16.885Z,99846.03
2022-11-22T19:30:48.913Z,99834.81
2022-11-22T19:33:20.993Z,99833.09
2022-11-22T19:36:01.984Z,99837.41
2022-11-22T19:38:34.055Z,99834.78
2022-11-22T19:41:10.947Z,99826.16
2022-11-22T19:43:43.972Z,99822.72
2022-11-22T19:46:16.395Z,99827.03
2022-11-22T19:48:56.426Z,99812.38
2022-11-22T19:51:30.940Z,99818.44
2022-11-22T19:54:03.941Z,99808.03
2022-11-22T19:56:38.413Z,99817.56
2022-11-22T19:59:15.703Z,99813.25
2022-11-22T20:01:47.765Z,99820.19
2022-11-22T20:04:19.912Z,99819.31
2022-11-22T20:06:51.935Z,99817.59
2022-11-22T20:09:24.157Z,99828.81
2022-11-22T20:11:56.234Z,99830.53
2022-11-22T20:14:28.469Z,99833.13
2022-11-22T20:17:00.703Z,99836.59
2022-11-22T20:19:34.466Z,99831.41
2022-11-22T20:22:06.782Z,99834.00
2022-11-22T20:24:38.890Z,99835.72
2022-11-22T20:27:11.223Z,99836.59
2022-11-22T20:29:43.592Z,99840.91
2022-11-22T20:32:15.606Z,99837.44
2022-11-22T20:34:47.634Z,99845.22
2022-11-22T20:37:19.633Z,99848.69
2022-11-22T20:39:51.602Z,99844.34
2022-11-22T20:42:34.193Z,99849.53
2022-11-22T20:45:08.730Z,99846.94
2022-11-22T20:47:40.869Z,99842.63
2022-11-22T20:50:13.040Z,99856.44
2022-11-22T20:52:44.974Z,99846.94
2022-11-22T20:55:16.946Z,99846.06
2022-11-22T20:57:48.925Z,99848.66
2022-11-22T21:00:21.010Z,99844.34
2022-11-22T21:02:52.954Z,99836.56
2022-11-22T21:05:25.008Z,99837.44
2022-11-22T21:08:00.019Z,99832.25
2022-11-22T21:10:34.488Z,99830.56
2022-11-22T21:13:06.588Z,99841.78
2022-11-22T21:15:38.741Z,99836.63
2022-11-22T21:18:27.132Z,99840.88
2022-11-22T21:21:11.809Z,99840.91
2022-11-22T21:23:44.010Z,99838.34
2022-11-22T21:26:16.004Z,99843.53
2022-11-22T21:28:48.106Z,99840.06
2022-11-22T21:31:21.852Z,99835.72
2022-11-22T21:33:54.024Z,99840.06
2022-11-22T21:36:26.407Z,99839.19
2022-11-22T21:38:58.509Z,99847.00
2022-11-22T21:41:45.865Z,99849.56
2022-11-22T21:44:17.942Z,99860.78
2022-11-22T21:46:51.071Z,99856.47
2022-11-22T21:49:23.012Z,99862.53
2022-11-22T21:51:55.742Z,99858.22
2022-11-22T21:54:27.760Z,99854.75
2022-11-22T21:57:02.969Z,99854.72
2022-11-22T21:59:35.824Z,99854.72
2022-11-22T22:02:08.516Z,99859.06
2022-11-22T22:04:40.512Z,99859.91
2022-11-22T22:07:29.542Z,99865.09
2022-11-22T22:10:05.737Z,99863.38
2022-11-22T22:12:39.618Z,99863.38
2022-11-22T22:15:13.250Z,99862.50
2022-11-22T22:17:45.556Z,99860.78
2022-11-22T22:20:17.623Z,99858.19
2022-11-22T22:22:50.161Z,99861.66
2022-11-22T22:25:22.207Z,99866.84
2022-11-22T22:27:57.207Z,99860.78
2022-11-22T22:30:29.276Z,99867.72
2022-11-22T22:33:01.222Z,99867.72
2022-11-22T22:35:33.203Z,99863.38
2022-11-22T22:38:05.161Z,99868.56
2022-11-22T22:40:37.108Z,99869.44
2022-11-22T22:43:09.154Z,99884.13
2022-11-22T22:45:41.129Z,99877.22
2022-11-22T22:48:13.204Z,99886.69
2022-11-22T22:50:45.808Z,99885.84
2022-11-22T22:53:17.760Z,99888.44
2022-11-22T22:55:55.985Z,99888.44
2022-11-22T22:58:28.397Z,99894.47
2022-11-22T23:01:21.958Z,99884.06
2022-11-22T23:04:06.083Z,99885.78
2022-11-22T23:06:39.854Z,99873.69
2022-11-22T23:09:12.500Z,99871.09
2022-11-22T23:12:02.840Z,99871.06
2022-11-22T23:14:34.810Z,99881.47
2022-11-22T23:17:08.755Z,99871.94
2022-11-22T23:19:40.702Z,99873.66
2022-11-22T23:22:12.616Z,99870.22
2022-11-22T23:24:44.801Z,99870.22
2022-11-22T23:27:16.766Z,99871.94
2022-11-22T23:29:48.716Z,99871.94
2022-11-22T23:32:20.802Z,99874.53
2022-11-22T23:34:52.767Z,99869.34
2022-11-22T23:37:24.792Z,99871.06
2022-11-22T23:39:56.747Z,99869.31
2022-11-22T23:42:29.260Z,99871.00
2022-11-22T23:45:01.226Z,99869.25
2022-11-22T23:47:33.151Z,99867.53
2022-11-22T23:50:05.661Z,99864.91
2022-11-22T23:52:37.595Z,99874.44
2022-11-22T23:55:09.823Z,99879.63
2022-11-22T23:57:42.063Z,99877.00
